Terminal Aerodrome Forecast
Issued by NWS

Home | Current Version | Previous Version | Text Only | Print | Product List | Glossary On
Versions: 1 2 3 4 5 6 7 8 9 10 11 12 13 14 15 16 17 18 19 20 21 22 23 24 25 26
322
FTUS46 KLOX 150531
TAFOXR
TAF
KOXR 150531Z 1506/1606 VRB03KT 6SM FU SKC
     FM150800 06009KT 6SM FU SKC
     FM152000 27008KT 6SM FU SKC
     FM160300 VRB03KT P6SM SKC=

USA.gov is the U.S. government's official web portal to all federal, state and local government web resources and services.